sensor_id;sensor_type;location;lat;lon;timestamp;pressure;altitude;pressure_sealevel;temperature;humidity
43147;BME280;28752;48.266;7.402;2022-08-21T00:01:11;99543.66;;;18.27;62.66
43147;BME280;28752;48.266;7.402;2022-08-21T00:03:39;99547.72;;;18.23;63.17
43147;BME280;28752;48.266;7.402;2022-08-21T00:06:06;99537.41;;;18.20;63.66
43147;BME280;28752;48.266;7.402;2022-08-21T00:08:31;99540.47;;;18.17;64.07
43147;BME280;28752;48.266;7.402;2022-08-21T00:10:57;99529.47;;;18.05;64.20
43147;BME280;28752;48.266;7.402;2022-08-21T00:13:22;99532.38;;;18.10;63.57
43147;BME280;28752;48.266;7.402;2022-08-21T00:15:49;99535.88;;;18.11;62.93
43147;BME280;28752;48.266;7.402;2022-08-21T00:18:15;99542.97;;;17.97;63.53
43147;BME280;28752;48.266;7.402;2022-08-21T00:20:42;99542.91;;;17.90;63.63
43147;BME280;28752;48.266;7.402;2022-08-21T00:23:09;99544.91;;;17.88;64.42
43147;BME280;28752;48.266;7.402;2022-08-21T00:25:35;99541.34;;;17.81;64.69
43147;BME280;28752;48.266;7.402;2022-08-21T00:28:01;99532.59;;;17.72;65.63
43147;BME280;28752;48.266;7.402;2022-08-21T00:30:27;99536.81;;;17.45;66.28
43147;BME280;28752;48.266;7.402;2022-08-21T00:32:54;99539.84;;;17.57;66.25
43147;BME280;28752;48.266;7.402;2022-08-21T00:35:24;99538.56;;;17.53;66.34
43147;BME280;28752;48.266;7.402;2022-08-21T00:37:49;99534.69;;;17.55;66.42
43147;BME280;28752;48.266;7.402;2022-08-21T00:40:21;99534.16;;;17.45;66.46
43147;BME280;28752;48.266;7.402;2022-08-21T00:42:47;99531.03;;;17.42;66.57
43147;BME280;28752;48.266;7.402;2022-08-21T00:45:13;99530.19;;;17.41;66.43
43147;BME280;28752;48.266;7.402;2022-08-21T00:47:38;99532.22;;;17.39;66.28
43147;BME280;28752;48.266;7.402;2022-08-21T00:50:07;99523.28;;;17.32;66.19
43147;BME280;28752;48.266;7.402;2022-08-21T00:52:35;99530.94;;;17.35;66.34
43147;BME280;28752;48.266;7.402;2022-08-21T00:55:02;99538.31;;;17.33;66.34
43147;BME280;28752;48.266;7.402;2022-08-21T00:57:34;99530.19;;;17.41;66.14
43147;BME280;28752;48.266;7.402;2022-08-21T01:00:04;99538.59;;;17.38;66.65
43147;BME280;28752;48.266;7.402;2022-08-21T01:02:30;99544.13;;;17.36;67.13
43147;BME280;28752;48.266;7.402;2022-08-21T01:04:55;99535.47;;;17.34;67.90
43147;BME280;28752;48.266;7.402;2022-08-21T01:07:21;99533.06;;;17.25;68.19
43147;BME280;28752;48.266;7.402;2022-08-21T01:09:46;99533.63;;;17.20;68.61
43147;BME280;28752;48.266;7.402;2022-08-21T01:12:13;99531.13;;;17.18;68.94
43147;BME280;28752;48.266;7.402;2022-08-21T01:14:40;99530.06;;;16.98;69.71
43147;BME280;28752;48.266;7.402;2022-08-21T01:17:09;99530.13;;;16.90;69.46
43147;BME280;28752;48.266;7.402;2022-08-21T01:19:35;99529.66;;;16.86;69.84
43147;BME280;28752;48.266;7.402;2022-08-21T01:22:01;99524.41;;;16.78;70.28
43147;BME280;28752;48.266;7.402;2022-08-21T01:24:26;99532.31;;;16.71;70.65
43147;BME280;28752;48.266;7.402;2022-08-21T01:26:52;99533.22;;;16.63;71.15
43147;BME280;28752;48.266;7.402;2022-08-21T01:31:52;99529.63;;;16.56;71.84
43147;BME280;28752;48.266;7.402;2022-08-21T01:34:17;99528.88;;;16.47;72.56
43147;BME280;28752;48.266;7.402;2022-08-21T01:36:44;99530.34;;;16.50;73.07
43147;BME280;28752;48.266;7.402;2022-08-21T01:39:10;99522.84;;;16.30;73.02
43147;BME280;28752;48.266;7.402;2022-08-21T01:41:36;99525.81;;;16.36;73.34
43147;BME280;28752;48.266;7.402;2022-08-21T01:44:01;99526.63;;;16.36;73.52
43147;BME280;28752;48.266;7.402;2022-08-21T01:46:27;99523.34;;;16.34;73.72
43147;BME280;28752;48.266;7.402;2022-08-21T01:48:52;99520.84;;;16.32;73.90
43147;BME280;28752;48.266;7.402;2022-08-21T01:51:18;99528.31;;;16.37;73.71
43147;BME280;28752;48.266;7.402;2022-08-21T01:53:44;99526.38;;;16.31;73.92
43147;BME280;28752;48.266;7.402;2022-08-21T01:56:12;99526.53;;;16.29;74.25
43147;BME280;28752;48.266;7.402;2022-08-21T01:58:39;99523.03;;;16.29;74.12
43147;BME280;28752;48.266;7.402;2022-08-21T02:01:05;99520.72;;;16.26;74.89
43147;BME280;28752;48.266;7.402;2022-08-21T02:03:30;99514.72;;;16.24;74.36
43147;BME280;28752;48.266;7.402;2022-08-21T02:05:56;99510.75;;;16.20;73.98
43147;BME280;28752;48.266;7.402;2022-08-21T02:08:22;99506.44;;;16.19;74.05
43147;BME280;28752;48.266;7.402;2022-08-21T02:10:51;99507.09;;;16.21;74.09
43147;BME280;28752;48.266;7.402;2022-08-21T02:13:17;99509.94;;;16.19;73.97
43147;BME280;28752;48.266;7.402;2022-08-21T02:15:42;99506.25;;;16.20;74.09
43147;BME280;28752;48.266;7.402;2022-08-21T02:18:09;99513.88;;;16.08;74.41
43147;BME280;28752;48.266;7.402;2022-08-21T02:20:41;99512.44;;;15.97;75.34
43147;BME280;28752;48.266;7.402;2022-08-21T02:23:09;99507.81;;;15.91;75.47
43147;BME280;28752;48.266;7.402;2022-08-21T02:25:35;99504.13;;;15.92;75.65
43147;BME280;28752;48.266;7.402;2022-08-21T02:28:07;99504.03;;;15.86;75.85
43147;BME280;28752;48.266;7.402;2022-08-21T02:30:39;99502.00;;;15.88;75.89
43147;BME280;28752;48.266;7.402;2022-08-21T02:33:05;99500.34;;;15.87;75.98
43147;BME280;28752;48.266;7.402;2022-08-21T02:35:30;99491.38;;;15.79;76.58
43147;BME280;28752;48.266;7.402;2022-08-21T02:38:00;99492.88;;;15.82;76.81
43147;BME280;28752;48.266;7.402;2022-08-21T02:40:29;99491.22;;;15.81;75.69
43147;BME280;28752;48.266;7.402;2022-08-21T02:42:56;99489.22;;;15.75;76.63
43147;BME280;28752;48.266;7.402;2022-08-21T02:45:22;99487.38;;;15.75;76.88
43147;BME280;28752;48.266;7.402;2022-08-21T02:48:01;99495.56;;;15.82;76.83
43147;BME280;28752;48.266;7.402;2022-08-21T02:50:30;99492.22;;;15.80;76.85
43147;BME280;28752;48.266;7.402;2022-08-21T02:52:56;99496.56;;;15.81;76.43
43147;BME280;28752;48.266;7.402;2022-08-21T02:55:24;99495.38;;;15.75;76.65
43147;BME280;28752;48.266;7.402;2022-08-21T02:57:52;99495.44;;;15.67;76.95
43147;BME280;28752;48.266;7.402;2022-08-21T03:00:17;99494.75;;;15.73;76.87
43147;BME280;28752;48.266;7.402;2022-08-21T03:02:43;99488.56;;;15.73;77.27
43147;BME280;28752;48.266;7.402;2022-08-21T03:05:13;99495.38;;;15.75;77.27
43147;BME280;28752;48.266;7.402;2022-08-21T03:07:41;99488.63;;;15.64;76.84
43147;BME280;28752;48.266;7.402;2022-08-21T03:10:07;99486.94;;;15.63;77.29
43147;BME280;28752;48.266;7.402;2022-08-21T03:12:33;99489.25;;;15.43;77.56
43147;BME280;28752;48.266;7.402;2022-08-21T03:15:01;99489.25;;;15.43;77.86
43147;BME280;28752;48.266;7.402;2022-08-21T03:17:26;99485.94;;;15.41;78.11
43147;BME280;28752;48.266;7.402;2022-08-21T03:19:52;99478.47;;;15.37;78.28
43147;BME280;28752;48.266;7.402;2022-08-21T03:22:17;99473.47;;;15.34;78.51
43147;BME280;28752;48.266;7.402;2022-08-21T03:24:43;99476.31;;;15.32;78.82
43147;BME280;28752;48.266;7.402;2022-08-21T03:27:10;99482.00;;;15.29;78.51
43147;BME280;28752;48.266;7.402;2022-08-21T03:29:37;99477.69;;;15.28;78.91
43147;BME280;28752;48.266;7.402;2022-08-21T03:32:03;99478.03;;;15.25;79.14
43147;BME280;28752;48.266;7.402;2022-08-21T03:34:28;99476.53;;;15.22;79.49
43147;BME280;28752;48.266;7.402;2022-08-21T03:36:54;99481.22;;;15.20;79.23
43147;BME280;28752;48.266;7.402;2022-08-21T03:39:19;99483.56;;;15.15;79.75
43147;BME280;28752;48.266;7.402;2022-08-21T03:41:45;99473.25;;;15.12;79.87
43147;BME280;28752;48.266;7.402;2022-08-21T03:44:10;99481.41;;;15.10;79.89
43147;BME280;28752;48.266;7.402;2022-08-21T03:46:36;99477.28;;;15.08;80.14
43147;BME280;28752;48.266;7.402;2022-08-21T03:49:02;99476.94;;;15.03;80.16
43147;BME280;28752;48.266;7.402;2022-08-21T03:51:27;99475.44;;;15.08;79.86
43147;BME280;28752;48.266;7.402;2022-08-21T03:53:53;99480.94;;;15.07;80.06
43147;BME280;28752;48.266;7.402;2022-08-21T03:56:19;99479.44;;;15.04;80.65
43147;BME280;28752;48.266;7.402;2022-08-21T03:58:45;99479.16;;;14.99;80.66
43147;BME280;28752;48.266;7.402;2022-08-21T04:01:10;99479.16;;;14.99;80.87
43147;BME280;28752;48.266;7.402;2022-08-21T04:03:37;99474.16;;;14.96;80.58
43147;BME280;28752;48.266;7.402;2022-08-21T04:06:03;99477.00;;;14.95;81.23
43147;BME280;28752;48.266;7.402;2022-08-21T04:08:29;99479.66;;;14.95;81.14
43147;BME280;28752;48.266;7.402;2022-08-21T04:10:56;99477.00;;;14.95;81.01
43147;BME280;28752;48.266;7.402;2022-08-21T04:13:23;99479.31;;;14.98;81.25
43147;BME280;28752;48.266;7.402;2022-08-21T04:15:49;99485.47;;;14.98;81.20
43147;BME280;28752;48.266;7.402;2022-08-21T04:18:15;99489.50;;;14.94;81.48
43147;BME280;28752;48.266;7.402;2022-08-21T04:20:42;99488.31;;;14.97;80.85
43147;BME280;28752;48.266;7.402;2022-08-21T04:23:09;99489.69;;;14.92;81.19
43147;BME280;28752;48.266;7.402;2022-08-21T04:25:34;99496.19;;;14.90;81.31
43147;BME280;28752;48.266;7.402;2022-08-21T04:28:00;99494.69;;;14.87;81.65
43147;BME280;28752;48.266;7.402;2022-08-21T04:30:27;99492.88;;;14.88;81.67
43147;BME280;28752;48.266;7.402;2022-08-21T04:32:52;99504.88;;;14.84;82.50
43147;BME280;28752;48.266;7.402;2022-08-21T04:35:21;99501.19;;;14.85;82.75
43147;BME280;28752;48.266;7.402;2022-08-21T04:37:47;99491.53;;;14.84;82.33
43147;BME280;28752;48.266;7.402;2022-08-21T04:40:16;99498.50;;;14.85;82.87
43147;BME280;28752;48.266;7.402;2022-08-21T04:42:45;99501.84;;;14.87;83.03
43147;BME280;28752;48.266;7.402;2022-08-21T04:45:26;99508.50;;;14.91;83.09
43147;BME280;28752;48.266;7.402;2022-08-21T04:47:55;99503.47;;;14.96;82.92
43147;BME280;28752;48.266;7.402;2022-08-21T04:54:02;99504.47;;;15.03;82.29
43147;BME280;28752;48.266;7.402;2022-08-21T04:56:05;99489.00;;;14.99;82.36
43147;BME280;28752;48.266;7.402;2022-08-21T04:58:34;99500.06;;;15.19;81.80
43147;BME280;28752;48.266;7.402;2022-08-21T05:01:01;99503.69;;;15.26;81.75
43147;BME280;28752;48.266;7.402;2022-08-21T05:03:27;99505.34;;;15.27;81.59
43147;BME280;28752;48.266;7.402;2022-08-21T05:05:53;99501.81;;;15.35;81.78
43147;BME280;28752;48.266;7.402;2022-08-21T05:08:19;99501.09;;;15.41;81.61
43147;BME280;28752;48.266;7.402;2022-08-21T05:10:46;99514.88;;;15.53;81.00
43147;BME280;28752;48.266;7.402;2022-08-21T05:13:13;99508.38;;;15.55;80.96
43147;BME280;28752;48.266;7.402;2022-08-21T05:15:39;99509.50;;;15.61;80.42
43147;BME280;28752;48.266;7.402;2022-08-21T05:18:05;99505.28;;;15.67;80.25
43147;BME280;28752;48.266;7.402;2022-08-21T05:20:32;99517.00;;;15.89;79.40
43147;BME280;28752;48.266;7.402;2022-08-21T05:22:59;99517.47;;;15.92;78.38
43147;BME280;28752;48.266;7.402;2022-08-21T05:25:25;99528.59;;;15.81;78.60
43147;BME280;28752;48.266;7.402;2022-08-21T05:27:51;99520.59;;;15.73;79.13
43147;BME280;28752;48.266;7.402;2022-08-21T05:30:16;99521.06;;;15.76;79.40
43147;BME280;28752;48.266;7.402;2022-08-21T05:32:41;99518.38;;;15.85;79.31
43147;BME280;28752;48.266;7.402;2022-08-21T05:35:08;99518.09;;;15.79;79.57
43147;BME280;28752;48.266;7.402;2022-08-21T05:37:34;99522.88;;;15.84;79.54
43147;BME280;28752;48.266;7.402;2022-08-21T05:40:00;99523.34;;;15.88;79.77
43147;BME280;28752;48.266;7.402;2022-08-21T05:42:26;99528.28;;;15.99;79.39
43147;BME280;28752;48.266;7.402;2022-08-21T05:44:53;99526.00;;;16.11;78.50
43147;BME280;28752;48.266;7.402;2022-08-21T05:47:18;99522.66;;;16.17;78.47
43147;BME280;28752;48.266;7.402;2022-08-21T05:49:43;99517.84;;;16.27;78.19
43147;BME280;28752;48.266;7.402;2022-08-21T05:52:09;99521.28;;;16.36;76.69
43147;BME280;28752;48.266;7.402;2022-08-21T05:54:36;99525.66;;;16.52;76.45
43147;BME280;28752;48.266;7.402;2022-08-21T05:57:02;99519.31;;;16.68;75.63
43147;BME280;28752;48.266;7.402;2022-08-21T05:59:28;99522.38;;;16.80;74.48
43147;BME280;28752;48.266;7.402;2022-08-21T06:01:53;99519.97;;;16.85;74.54
43147;BME280;28752;48.266;7.402;2022-08-21T06:04:18;99514.81;;;16.98;74.15
43147;BME280;28752;48.266;7.402;2022-08-21T06:06:44;99519.44;;;17.04;72.50
43147;BME280;28752;48.266;7.402;2022-08-21T06:09:10;99514.44;;;17.16;72.72
43147;BME280;28752;48.266;7.402;2022-08-21T06:11:35;99510.72;;;17.32;72.17
43147;BME280;28752;48.266;7.402;2022-08-21T06:14:00;99506.00;;;17.49;71.51
43147;BME280;28752;48.266;7.402;2022-08-21T06:16:26;99524.47;;;17.66;71.39
43147;BME280;28752;48.266;7.402;2022-08-21T06:18:52;99526.91;;;17.82;70.50
43147;BME280;28752;48.266;7.402;2022-08-21T06:21:18;99530.66;;;18.03;69.78
43147;BME280;28752;48.266;7.402;2022-08-21T06:23:44;99528.97;;;18.23;69.26
43147;BME280;28752;48.266;7.402;2022-08-21T06:26:11;99532.06;;;18.49;68.94
43147;BME280;28752;48.266;7.402;2022-08-21T06:28:37;99527.38;;;18.57;68.53
43147;BME280;28752;48.266;7.402;2022-08-21T06:31:11;99533.69;;;18.78;67.53
43147;BME280;28752;48.266;7.402;2022-08-21T06:33:36;99528.53;;;19.60;65.03
43147;BME280;28752;48.266;7.402;2022-08-21T06:36:02;99518.06;;;21.51;60.27
43147;BME280;28752;48.266;7.402;2022-08-21T06:38:28;99523.88;;;24.15;52.45
43147;BME280;28752;48.266;7.402;2022-08-21T06:40:53;99521.91;;;26.37;46.42
43147;BME280;28752;48.266;7.402;2022-08-21T06:43:19;99514.94;;;27.96;41.94
43147;BME280;28752;48.266;7.402;2022-08-21T06:45:44;99519.38;;;29.36;39.93
43147;BME280;28752;48.266;7.402;2022-08-21T06:48:10;99530.41;;;30.28;37.53
43147;BME280;28752;48.266;7.402;2022-08-21T06:50:36;99527.75;;;31.25;35.80
43147;BME280;28752;48.266;7.402;2022-08-21T06:53:09;99521.22;;;31.76;34.95
43147;BME280;28752;48.266;7.402;2022-08-21T06:55:35;99528.84;;;32.18;33.86
43147;BME280;28752;48.266;7.402;2022-08-21T06:58:02;99519.94;;;31.97;33.47
43147;BME280;28752;48.266;7.402;2022-08-21T07:00:27;99522.88;;;32.11;33.94
43147;BME280;28752;48.266;7.402;2022-08-21T07:02:53;99526.81;;;33.12;32.85
43147;BME280;28752;48.266;7.402;2022-08-21T07:05:18;99529.31;;;33.52;31.57
43147;BME280;28752;48.266;7.402;2022-08-21T07:07:46;99527.53;;;33.23;31.67
43147;BME280;28752;48.266;7.402;2022-08-21T07:10:13;99525.88;;;33.22;31.57
43147;BME280;28752;48.266;7.402;2022-08-21T07:12:40;99524.41;;;33.68;30.70
43147;BME280;28752;48.266;7.402;2022-08-21T07:15:06;99520.94;;;34.00;29.82
43147;BME280;28752;48.266;7.402;2022-08-21T07:17:32;99522.78;;;34.38;29.95
43147;BME280;28752;48.266;7.402;2022-08-21T07:19:57;99524.88;;;34.74;29.18
43147;BME280;28752;48.266;7.402;2022-08-21T07:22:23;99514.81;;;34.83;28.96
43147;BME280;28752;48.266;7.402;2022-08-21T07:24:49;99517.75;;;35.28;28.18
43147;BME280;28752;48.266;7.402;2022-08-21T07:27:15;99520.09;;;34.65;28.21
43147;BME280;28752;48.266;7.402;2022-08-21T07:29:40;99521.22;;;34.78;28.00
43147;BME280;28752;48.266;7.402;2022-08-21T07:32:05;99521.94;;;34.84;28.53
43147;BME280;28752;48.266;7.402;2022-08-21T07:34:31;99513.75;;;34.65;28.82
43147;BME280;28752;48.266;7.402;2022-08-21T07:36:57;99516.59;;;34.46;28.83
43147;BME280;28752;48.266;7.402;2022-08-21T07:39:23;99511.19;;;34.08;29.50
43147;BME280;28752;48.266;7.402;2022-08-21T07:41:49;99508.41;;;33.12;30.35
43147;BME280;28752;48.266;7.402;2022-08-21T07:44:14;99506.16;;;31.78;31.87
43147;BME280;28752;48.266;7.402;2022-08-21T07:46:40;99510.06;;;31.12;33.52
43147;BME280;28752;48.266;7.402;2022-08-21T07:49:05;99505.78;;;29.67;35.50
43147;BME280;28752;48.266;7.402;2022-08-21T07:51:31;99507.47;;;28.94;37.51
43147;BME280;28752;48.266;7.402;2022-08-21T07:53:59;99499.00;;;28.48;38.99
43147;BME280;28752;48.266;7.402;2022-08-21T07:56:26;99497.75;;;28.23;39.13
43147;BME280;28752;48.266;7.402;2022-08-21T07:58:51;99491.28;;;27.70;40.44
43147;BME280;28752;48.266;7.402;2022-08-21T08:01:17;99494.63;;;27.27;40.88
43147;BME280;28752;48.266;7.402;2022-08-21T08:03:43;99496.53;;;27.05;41.36
43147;BME280;28752;48.266;7.402;2022-08-21T08:06:10;99500.91;;;26.33;42.33
43147;BME280;28752;48.266;7.402;2022-08-21T08:08:38;99504.13;;;26.13;43.37
43147;BME280;28752;48.266;7.402;2022-08-21T08:11:04;99502.06;;;25.86;43.57
43147;BME280;28752;48.266;7.402;2022-08-21T08:13:29;99493.81;;;25.98;44.06
43147;BME280;28752;48.266;7.402;2022-08-21T08:15:55;99495.84;;;26.19;43.92
43147;BME280;28752;48.266;7.402;2022-08-21T08:18:20;99488.53;;;26.03;44.14
43147;BME280;28752;48.266;7.402;2022-08-21T08:20:45;99491.56;;;26.23;44.21
43147;BME280;28752;48.266;7.402;2022-08-21T08:23:12;99497.00;;;26.40;44.33
43147;BME280;28752;48.266;7.402;2022-08-21T08:25:37;99494.75;;;26.20;43.45
43147;BME280;28752;48.266;7.402;2022-08-21T08:28:05;99499.22;;;26.44;43.42
43147;BME280;28752;48.266;7.402;2022-08-21T08:30:32;99495.41;;;26.45;43.42
43147;BME280;28752;48.266;7.402;2022-08-21T08:32:58;99498.22;;;26.33;43.42
43147;BME280;28752;48.266;7.402;2022-08-21T08:35:25;99494.41;;;26.51;43.34
43147;BME280;28752;48.266;7.402;2022-08-21T08:37:51;99480.06;;;26.33;43.28
43147;BME280;28752;48.266;7.402;2022-08-21T08:40:31;99486.06;;;26.18;43.62
43147;BME280;28752;48.266;7.402;2022-08-21T08:42:59;99482.53;;;26.18;44.42
43147;BME280;28752;48.266;7.402;2022-08-21T08:45:25;99483.56;;;26.34;44.64
43147;BME280;28752;48.266;7.402;2022-08-21T08:47:59;99476.13;;;26.07;43.47
43147;BME280;28752;48.266;7.402;2022-08-21T08:53:04;99477.78;;;25.79;43.54
43147;BME280;28752;48.266;7.402;2022-08-21T08:55:35;99468.84;;;25.96;43.82
43147;BME280;28752;48.266;7.402;2022-08-21T08:58:02;99460.47;;;25.80;43.29
43147;BME280;28752;48.266;7.402;2022-08-21T09:00:29;99466.66;;;26.10;42.57
43147;BME280;28752;48.266;7.402;2022-08-21T09:02:58;99452.78;;;26.06;41.21
43147;BME280;28752;48.266;7.402;2022-08-21T09:05:26;99455.56;;;26.11;42.72
43147;BME280;28752;48.266;7.402;2022-08-21T09:08:25;99451.84;;;26.00;42.08
43147;BME280;28752;48.266;7.402;2022-08-21T09:19:51;99441.09;;;25.43;42.78
43147;BME280;28752;48.266;7.402;2022-08-21T09:22:31;99436.63;;;25.65;42.21
43147;BME280;28752;48.266;7.402;2022-08-21T09:27:41;99436.28;;;25.96;41.52
43147;BME280;28752;48.266;7.402;2022-08-21T09:30:07;99427.84;;;25.92;41.41
43147;BME280;28752;48.266;7.402;2022-08-21T09:32:35;99431.44;;;25.81;40.67
43147;BME280;28752;48.266;7.402;2022-08-21T09:35:22;99435.13;;;25.92;41.42
43147;BME280;28752;48.266;7.402;2022-08-21T09:38:03;99431.13;;;25.94;41.79
43147;BME280;28752;48.266;7.402;2022-08-21T09:40:43;99438.47;;;26.11;42.26
43147;BME280;28752;48.266;7.402;2022-08-21T09:45:43;99433.47;;;25.57;42.17
43147;BME280;28752;48.266;7.402;2022-08-21T09:48:23;99439.00;;;25.62;42.50
43147;BME280;28752;48.266;7.402;2022-08-21T09:50:51;99431.69;;;25.62;41.17
43147;BME280;28752;48.266;7.402;2022-08-21T09:53:18;99430.03;;;25.61;41.03
43147;BME280;28752;48.266;7.402;2022-08-21T09:55:54;99423.31;;;25.98;41.15
43147;BME280;28752;48.266;7.402;2022-08-21T09:58:41;99440.91;;;26.29;41.69
43147;BME280;28752;48.266;7.402;2022-08-21T10:01:16;99445.69;;;26.22;39.91
43147;BME280;28752;48.266;7.402;2022-08-21T10:03:43;99435.38;;;25.73;39.42
43147;BME280;28752;48.266;7.402;2022-08-21T10:06:10;99430.38;;;25.65;39.93
43147;BME280;28752;48.266;7.402;2022-08-21T10:08:45;99424.13;;;25.64;39.51
43147;BME280;28752;48.266;7.402;2022-08-21T10:11:15;99427.09;;;25.97;40.47
43147;BME280;28752;48.266;7.402;2022-08-21T10:19:12;99412.63;;;25.57;40.38
43147;BME280;28752;48.266;7.402;2022-08-21T10:25:17;99408.13;;;25.97;39.31
43147;BME280;28752;48.266;7.402;2022-08-21T10:27:59;99400.97;;;26.08;39.38
43147;BME280;28752;48.266;7.402;2022-08-21T10:30:38;99390.09;;;26.24;39.49
43147;BME280;28752;48.266;7.402;2022-08-21T10:33:16;99394.16;;;26.44;39.59
43147;BME280;28752;48.266;7.402;2022-08-21T10:35:53;99405.13;;;26.32;38.72
43147;BME280;28752;48.266;7.402;2022-08-21T10:43:52;99405.91;;;26.11;39.26
43147;BME280;28752;48.266;7.402;2022-08-21T10:49:30;99385.69;;;25.84;38.69
43147;BME280;28752;48.266;7.402;2022-08-21T10:55:02;99395.66;;;26.35;38.88
43147;BME280;28752;48.266;7.402;2022-08-21T11:00:28;99383.56;;;26.42;38.50
43147;BME280;28752;48.266;7.402;2022-08-21T11:03:05;99382.16;;;26.40;38.08
43147;BME280;28752;48.266;7.402;2022-08-21T11:05:36;99381.22;;;26.51;38.20
43147;BME280;28752;48.266;7.402;2022-08-21T11:08:18;99376.66;;;26.57;37.72
43147;BME280;28752;48.266;7.402;2022-08-21T11:10:52;99379.78;;;26.44;38.04
43147;BME280;28752;48.266;7.402;2022-08-21T11:13:45;99370.44;;;26.34;38.39
43147;BME280;28752;48.266;7.402;2022-08-21T11:16:32;99372.50;;;26.27;38.35
43147;BME280;28752;48.266;7.402;2022-08-21T11:19:11;99365.47;;;26.09;38.89
43147;BME280;28752;48.266;7.402;2022-08-21T11:21:50;99361.34;;;26.06;39.03
43147;BME280;28752;48.266;7.402;2022-08-21T11:24:46;99367.06;;;26.27;39.95
43147;BME280;28752;48.266;7.402;2022-08-21T11:30:13;99365.41;;;26.26;38.79
43147;BME280;28752;48.266;7.402;2022-08-21T11:38:28;99344.66;;;26.59;39.13
43147;BME280;28752;48.266;7.402;2022-08-21T11:44:14;99346.97;;;26.67;38.26
43147;BME280;28752;48.266;7.402;2022-08-21T11:52:08;99342.66;;;26.71;37.99
43147;BME280;28752;48.266;7.402;2022-08-21T11:57:09;99334.78;;;26.70;37.68
43147;BME280;28752;48.266;7.402;2022-08-21T11:59:54;99334.53;;;26.71;38.13
43147;BME280;28752;48.266;7.402;2022-08-21T12:02:24;99334.88;;;26.58;38.18
43147;BME280;28752;48.266;7.402;2022-08-21T12:05:06;99326.22;;;26.61;37.97
43147;BME280;28752;48.266;7.402;2022-08-21T12:07:42;99319.22;;;26.65;37.82
43147;BME280;28752;48.266;7.402;2022-08-21T12:10:11;99329.84;;;26.67;38.09
43147;BME280;28752;48.266;7.402;2022-08-21T12:12:39;99322.00;;;26.70;38.00
43147;BME280;28752;48.266;7.402;2022-08-21T12:25:36;99322.75;;;26.88;37.45
43147;BME280;28752;48.266;7.402;2022-08-21T12:28:08;99310.97;;;26.77;38.07
43147;BME280;28752;48.266;7.402;2022-08-21T12:30:36;99313.44;;;26.79;37.29
43147;BME280;28752;48.266;7.402;2022-08-21T12:33:19;99304.94;;;26.75;37.97
43147;BME280;28752;48.266;7.402;2022-08-21T12:35:47;99310.28;;;26.92;37.51
43147;BME280;28752;48.266;7.402;2022-08-21T12:38:23;99305.34;;;26.89;37.12
43147;BME280;28752;48.266;7.402;2022-08-21T12:41:06;99308.00;;;26.79;37.44
43147;BME280;28752;48.266;7.402;2022-08-21T12:43:41;99312.25;;;26.69;37.39
43147;BME280;28752;48.266;7.402;2022-08-21T12:46:17;99308.75;;;26.74;37.79
43147;BME280;28752;48.266;7.402;2022-08-21T12:48:57;99309.16;;;26.66;37.74
43147;BME280;28752;48.266;7.402;2022-08-21T12:51:41;99308.50;;;26.75;37.80
43147;BME280;28752;48.266;7.402;2022-08-21T12:54:08;99302.22;;;26.75;37.37
43147;BME280;28752;48.266;7.402;2022-08-21T12:56:33;99303.13;;;26.81;37.29
43147;BME280;28752;48.266;7.402;2022-08-21T12:59:06;99299.34;;;26.82;37.22
43147;BME280;28752;48.266;7.402;2022-08-21T13:01:39;99297.16;;;26.84;37.68
43147;BME280;28752;48.266;7.402;2022-08-21T13:04:19;99296.09;;;26.85;37.38
43147;BME280;28752;48.266;7.402;2022-08-21T13:06:49;99292.81;;;26.83;36.77
43147;BME280;28752;48.266;7.402;2022-08-21T13:09:19;99279.88;;;26.95;37.21
43147;BME280;28752;48.266;7.402;2022-08-21T13:11:47;99285.63;;;26.99;37.09
43147;BME280;28752;48.266;7.402;2022-08-21T13:14:30;99275.84;;;26.98;37.05
43147;BME280;28752;48.266;7.402;2022-08-21T13:16:58;99275.16;;;26.80;36.80
43147;BME280;28752;48.266;7.402;2022-08-21T13:19:25;99266.53;;;26.88;37.09
43147;BME280;28752;48.266;7.402;2022-08-21T13:21:51;99276.41;;;27.00;37.22
43147;BME280;28752;48.266;7.402;2022-08-21T13:24:28;99272.09;;;27.04;36.83
43147;BME280;28752;48.266;7.402;2022-08-21T13:26:55;99276.97;;;27.02;36.87
43147;BME280;28752;48.266;7.402;2022-08-21T13:29:27;99278.38;;;27.04;36.95
43147;BME280;28752;48.266;7.402;2022-08-21T13:31:55;99272.88;;;26.99;36.89
43147;BME280;28752;48.266;7.402;2022-08-21T13:34:28;99267.66;;;26.92;36.83
43147;BME280;28752;48.266;7.402;2022-08-21T13:36:58;99271.44;;;26.91;36.82
43147;BME280;28752;48.266;7.402;2022-08-21T13:39:24;99263.81;;;26.88;37.31
43147;BME280;28752;48.266;7.402;2022-08-21T13:41:54;99269.63;;;27.02;37.39
43147;BME280;28752;48.266;7.402;2022-08-21T13:44:23;99263.03;;;26.93;37.03
43147;BME280;28752;48.266;7.402;2022-08-21T13:46:52;99256.00;;;26.97;37.82
43147;BME280;28752;48.266;7.402;2022-08-21T13:49:21;99254.97;;;27.03;37.21
43147;BME280;28752;48.266;7.402;2022-08-21T13:51:48;99254.97;;;27.03;36.63
43147;BME280;28752;48.266;7.402;2022-08-21T13:54:33;99248.22;;;27.06;36.49
43147;BME280;28752;48.266;7.402;2022-08-21T13:56:59;99252.88;;;27.10;36.49
43147;BME280;28752;48.266;7.402;2022-08-21T13:59:26;99251.19;;;27.04;36.43
43147;BME280;28752;48.266;7.402;2022-08-21T14:04:32;99248.16;;;27.01;37.02
43147;BME280;28752;48.266;7.402;2022-08-21T14:06:59;99247.34;;;27.00;36.31
43147;BME280;28752;48.266;7.402;2022-08-21T14:09:32;99241.03;;;26.94;36.11
43147;BME280;28752;48.266;7.402;2022-08-21T14:12:02;99228.19;;;26.85;36.49
43147;BME280;28752;48.266;7.402;2022-08-21T14:14:33;99232.34;;;26.92;36.35
43147;BME280;28752;48.266;7.402;2022-08-21T14:17:03;99233.16;;;26.93;35.98
43147;BME280;28752;48.266;7.402;2022-08-21T14:19:44;99226.28;;;26.85;35.97
43147;BME280;28752;48.266;7.402;2022-08-21T14:27:44;99229.41;;;26.99;35.40
43147;BME280;28752;48.266;7.402;2022-08-21T14:30:30;99225.00;;;26.93;35.75
43147;BME280;28752;48.266;7.402;2022-08-21T14:32:56;99223.78;;;27.11;35.95